createdAt,value
2016-07-04T00:00:21.731Z,0
2016-07-04T00:01:21.721Z,0
2016-07-04T00:02:21.679Z,0
2016-07-04T00:03:21.672Z,0
2016-07-04T00:04:21.655Z,0
2016-07-04T00:05:21.613Z,0
2016-07-04T00:06:21.604Z,0
2016-07-04T00:07:22.183Z,0
2016-07-04T00:08:21.562Z,0
2016-07-04T00:09:21.540Z,0
2016-07-04T00:10:21.520Z,0
2016-07-04T00:11:21.493Z,0
2016-07-04T00:12:21.490Z,0
2016-07-04T00:13:21.461Z,0
2016-07-04T00:14:22.049Z,0
2016-07-04T00:15:21.415Z,0
2016-07-04T00:16:21.400Z,0
2016-07-04T00:17:21.382Z,0
2016-07-04T00:18:21.353Z,0
2016-07-04T00:19:21.335Z,0
2016-07-04T00:20:21.299Z,0
2016-07-04T00:21:21.288Z,0
2016-07-04T00:22:21.251Z,0
2016-07-04T00:23:21.239Z,0
2016-07-04T00:24:21.232Z,0
2016-07-04T00:25:21.194Z,0
2016-07-04T00:26:21.168Z,0
2016-07-04T00:27:21.157Z,0
2016-07-04T00:28:21.129Z,0
2016-07-04T00:29:21.119Z,0
2016-07-04T00:30:21.091Z,0
2016-07-04T00:31:21.079Z,0
2016-07-04T00:32:21.048Z,0
2016-07-04T00:33:21.038Z,0
2016-07-04T00:34:21.001Z,0
2016-07-04T00:35:20.988Z,0
2016-07-04T00:36:20.963Z,0
2016-07-04T00:37:20.944Z,0
2016-07-04T00:38:20.924Z,0
2016-07-04T00:39:20.903Z,0
2016-07-04T00:40:20.882Z,0
2016-07-04T00:41:20.871Z,0
2016-07-04T00:42:20.836Z,0
2016-07-04T00:43:20.828Z,0
2016-07-04T00:44:20.796Z,0
2016-07-04T00:45:20.780Z,0
2016-07-04T00:46:20.757Z,0
2016-07-04T00:47:20.741Z,0
2016-07-04T00:48:20.707Z,0
2016-07-04T00:49:20.693Z,0
2016-07-04T00:50:20.664Z,0
2016-07-04T00:51:20.646Z,0
2016-07-04T00:52:20.625Z,0
2016-07-04T00:53:20.612Z,0
2016-07-04T00:54:20.588Z,0
2016-07-04T00:55:20.569Z,0
2016-07-04T00:56:20.545Z,0
2016-07-04T00:57:20.531Z,0
2016-07-04T00:58:21.123Z,0
2016-07-04T00:59:20.486Z,0
2016-07-04T01:00:20.459Z,0
2016-07-04T01:01:20.431Z,0
2016-07-04T01:02:20.427Z,0
2016-07-04T01:03:20.399Z,0
2016-07-04T01:04:20.384Z,0
2016-07-04T01:05:20.363Z,0
2016-07-04T01:06:21.299Z,0
2016-07-04T01:07:20.435Z,0
2016-07-04T01:08:21.135Z,0
2016-07-04T01:09:20.434Z,0
2016-07-04T01:10:20.284Z,0
2016-07-04T01:11:20.350Z,0
2016-07-04T01:12:20.270Z,0
2016-07-04T01:13:20.191Z,0
2016-07-04T01:14:20.171Z,0
2016-07-04T01:15:20.147Z,0
2016-07-04T01:16:20.123Z,0
2016-07-04T01:17:20.103Z,0
2016-07-04T01:18:20.075Z,0
2016-07-04T01:19:20.057Z,0
2016-07-04T01:20:20.642Z,0
2016-07-04T01:21:20.016Z,0
2016-07-04T01:22:19.998Z,0
2016-07-04T01:23:19.972Z,0
2016-07-04T01:24:19.955Z,0
2016-07-04T01:25:19.946Z,0
2016-07-04T01:26:19.916Z,0
2016-07-04T01:27:19.895Z,0
2016-07-04T01:28:19.876Z,0
2016-07-04T01:29:19.850Z,0
2016-07-04T01:30:19.830Z,0
2016-07-04T01:31:19.811Z,0
2016-07-04T01:32:19.789Z,0
2016-07-04T01:33:19.766Z,0
2016-07-04T01:34:19.750Z,0
2016-07-04T01:35:19.721Z,0
2016-07-04T01:36:19.702Z,0
2016-07-04T01:37:19.679Z,0
2016-07-04T01:38:19.659Z,0
2016-07-04T01:39:19.640Z,0
2016-07-04T01:40:19.604Z,0
2016-07-04T01:41:19.591Z,0
2016-07-04T01:42:19.561Z,0
2016-07-04T01:43:19.547Z,0
2016-07-04T01:44:19.533Z,0
2016-07-04T01:45:19.504Z,0
2016-07-04T01:46:19.487Z,0
2016-07-04T01:47:19.458Z,0
2016-07-04T01:48:19.444Z,0
2016-07-04T01:49:19.413Z,0
2016-07-04T01:50:19.390Z,0
2016-07-04T01:51:19.377Z,0
2016-07-04T01:52:19.358Z,0
2016-07-04T01:53:19.333Z,0
2016-07-04T01:54:19.303Z,0
2016-07-04T01:55:19.273Z,0
2016-07-04T01:56:19.267Z,0
2016-07-04T01:57:19.240Z,0
2016-07-04T01:58:19.220Z,0
2016-07-04T01:59:19.187Z,0
2016-07-04T02:00:19.405Z,0
2016-07-04T02:01:19.143Z,0
2016-07-04T02:02:19.124Z,0
2016-07-04T02:03:19.100Z,0
2016-07-04T02:04:19.082Z,0
2016-07-04T02:05:19.069Z,0
2016-07-04T02:06:19.049Z,0
2016-07-04T02:07:19.022Z,0
2016-07-04T02:08:19.002Z,0
2016-07-04T02:09:19.119Z,0
2016-07-04T02:10:19.237Z,0
2016-07-04T02:11:19.049Z,0
2016-07-04T02:12:19.121Z,0
2016-07-04T02:13:19.070Z,0
2016-07-04T02:14:19.075Z,0
2016-07-04T02:15:19.159Z,0
2016-07-04T02:16:19.093Z,0
2016-07-04T02:17:18.891Z,0
2016-07-04T02:18:18.783Z,0
2016-07-04T02:19:18.757Z,0
2016-07-04T02:20:18.752Z,0
2016-07-04T02:21:18.732Z,0
2016-07-04T02:22:18.699Z,0
2016-07-04T02:23:18.672Z,0
2016-07-04T02:24:18.664Z,0
2016-07-04T02:25:18.634Z,0
2016-07-04T02:26:18.623Z,0
2016-07-04T02:27:18.591Z,0
2016-07-04T02:28:18.561Z,0
2016-07-04T02:29:18.543Z,0
2016-07-04T02:30:18.522Z,0
2016-07-04T02:31:18.497Z,0
2016-07-04T02:32:18.479Z,0
2016-07-04T02:33:18.450Z,0
2016-07-04T02:34:18.435Z,0
2016-07-04T02:35:18.409Z,0
2016-07-04T02:36:18.394Z,0
2016-07-04T02:37:18.358Z,0
2016-07-04T02:38:18.947Z,0
2016-07-04T02:39:18.316Z,0
2016-07-04T02:40:18.300Z,0
2016-07-04T02:41:18.270Z,0
2016-07-04T02:42:18.245Z,0
2016-07-04T02:43:18.221Z,0
2016-07-04T02:44:18.808Z,0
2016-07-04T02:45:18.179Z,0
2016-07-04T02:46:18.158Z,0
2016-07-04T02:47:18.140Z,0
2016-07-04T02:48:18.109Z,0
2016-07-04T02:49:18.094Z,0
2016-07-04T02:50:18.070Z,0
2016-07-04T02:51:18.047Z,0
2016-07-04T02:52:18.031Z,0
2016-07-04T02:53:18.607Z,0
2016-07-04T02:54:17.993Z,0
2016-07-04T02:55:17.956Z,0
2016-07-04T02:56:17.940Z,0
2016-07-04T02:57:17.925Z,0
2016-07-04T02:58:17.905Z,0
2016-07-04T02:59:17.875Z,0
2016-07-04T03:00:17.856Z,0
2016-07-04T03:01:18.429Z,0
2016-07-04T03:02:17.797Z,5
2016-07-04T03:03:17.771Z,5
2016-07-04T03:04:17.761Z,5
2016-07-04T03:05:17.747Z,5
2016-07-04T03:06:17.730Z,5
2016-07-04T03:07:18.296Z,5
2016-07-04T03:08:18.290Z,5
2016-07-04T03:09:17.649Z,10
2016-07-04T03:10:17.638Z,10
2016-07-04T03:11:17.609Z,10
2016-07-04T03:12:17.588Z,10
2016-07-04T03:13:17.565Z,10
2016-07-04T03:14:18.135Z,15
2016-07-04T03:15:18.126Z,15
2016-07-04T03:16:17.487Z,15
2016-07-04T03:17:17.458Z,15
2016-07-04T03:18:17.453Z,20
2016-07-04T03:19:17.417Z,20
2016-07-04T03:20:17.394Z,20
2016-07-04T03:21:17.415Z,20
2016-07-04T03:22:17.348Z,25
2016-07-04T03:23:17.324Z,25
2016-07-04T03:24:17.311Z,25
2016-07-04T03:25:17.278Z,30
2016-07-04T03:26:17.265Z,30
2016-07-04T03:27:17.250Z,30
2016-07-04T03:28:17.225Z,35
2016-07-04T03:29:17.214Z,35
2016-07-04T03:30:17.187Z,40
2016-07-04T03:31:17.158Z,40
2016-07-04T03:32:17.133Z,40
2016-07-04T03:33:17.111Z,45
2016-07-04T03:34:17.099Z,45
2016-07-04T03:35:17.067Z,50
2016-07-04T03:36:17.040Z,50
2016-07-04T03:37:17.019Z,55
2016-07-04T03:38:16.998Z,55
2016-07-04T03:39:16.981Z,55
2016-07-04T03:40:16.956Z,60
2016-07-04T03:41:16.929Z,60
2016-07-04T03:42:16.913Z,65
2016-07-04T03:43:16.877Z,65
2016-07-04T03:44:16.855Z,70
2016-07-04T03:45:16.834Z,70
2016-07-04T03:46:16.818Z,75
2016-07-04T03:47:16.800Z,75
2016-07-04T03:48:16.773Z,80
2016-07-04T03:49:16.745Z,80
2016-07-04T03:50:16.733Z,85
2016-07-04T03:51:16.708Z,85
2016-07-04T03:52:16.684Z,90
2016-07-04T03:53:16.662Z,90
2016-07-04T03:54:16.642Z,95
2016-07-04T03:55:16.619Z,95
2016-07-04T03:56:16.585Z,100
2016-07-04T03:57:16.570Z,100
2016-07-04T03:58:16.555Z,105
2016-07-04T03:59:16.533Z,105
2016-07-04T04:00:16.544Z,110
2016-07-04T04:01:16.484Z,110
2016-07-04T04:02:16.460Z,115
2016-07-04T04:03:16.436Z,115
2016-07-04T04:04:16.419Z,120
2016-07-04T04:05:16.399Z,120
2016-07-04T04:06:16.387Z,125
2016-07-04T04:07:16.951Z,130
2016-07-04T04:08:16.329Z,130
2016-07-04T04:09:16.325Z,135
2016-07-04T04:10:16.279Z,140
2016-07-04T04:11:16.259Z,140
2016-07-04T04:12:16.235Z,145
2016-07-04T04:13:16.219Z,150
2016-07-04T04:14:16.791Z,155
2016-07-04T04:15:16.182Z,160
2016-07-04T04:16:16.158Z,160
2016-07-04T04:17:16.133Z,175
2016-07-04T04:18:16.112Z,185
2016-07-04T04:19:16.089Z,200
2016-07-04T04:20:16.069Z,205
2016-07-04T04:21:16.097Z,210
2016-07-04T04:22:16.036Z,210
2016-07-04T04:23:15.997Z,210
2016-07-04T04:24:16.589Z,215
2016-07-04T04:25:15.969Z,220
2016-07-04T04:26:15.941Z,225
2016-07-04T04:27:16.516Z,230
2016-07-04T04:28:15.892Z,230
2016-07-04T04:29:15.863Z,230
2016-07-04T04:30:15.851Z,225
2016-07-04T04:31:15.819Z,220
2016-07-04T04:32:15.800Z,220
2016-07-04T04:33:15.788Z,215
2016-07-04T04:34:15.761Z,215
2016-07-04T04:35:15.747Z,215
2016-07-04T04:36:15.722Z,215
2016-07-04T04:37:15.699Z,215
2016-07-04T04:38:16.280Z,215
2016-07-04T04:39:15.651Z,215
2016-07-04T04:40:15.635Z,215
2016-07-04T04:41:15.613Z,220
2016-07-04T04:42:15.591Z,225
2016-07-04T04:43:15.563Z,230
2016-07-04T04:44:15.540Z,245
2016-07-04T04:45:15.517Z,250
2016-07-04T04:46:15.503Z,270
2016-07-04T04:47:16.085Z,280
2016-07-04T04:48:15.472Z,285
2016-07-04T04:49:15.446Z,285
2016-07-04T04:50:15.430Z,290
2016-07-04T04:51:15.402Z,290
2016-07-04T04:52:15.389Z,295
2016-07-04T04:53:15.363Z,295
2016-07-04T04:54:15.351Z,300
2016-07-04T04:55:15.329Z,305
2016-07-04T04:56:15.301Z,305
2016-07-04T04:57:15.283Z,305
2016-07-04T04:58:15.265Z,310
2016-07-04T04:59:15.840Z,310
2016-07-04T05:00:15.220Z,310
2016-07-04T05:01:15.203Z,310
2016-07-04T05:02:15.179Z,320
2016-07-04T05:03:15.151Z,320
2016-07-04T05:04:15.131Z,315
2016-07-04T05:05:15.109Z,320
2016-07-04T05:06:15.096Z,315
2016-07-04T05:07:15.069Z,315
2016-07-04T05:08:15.058Z,325
2016-07-04T05:09:15.038Z,340
2016-07-04T05:10:15.608Z,345
2016-07-04T05:11:14.996Z,350
2016-07-04T05:12:14.975Z,355
2016-07-04T05:13:14.963Z,360
2016-07-04T05:14:14.927Z,365
2016-07-04T05:15:14.912Z,370
2016-07-04T05:16:14.891Z,380
2016-07-04T05:17:14.890Z,390
2016-07-04T05:18:14.848Z,395
2016-07-04T05:19:14.826Z,400
2016-07-04T05:20:14.812Z,405
2016-07-04T05:21:14.795Z,410
2016-07-04T05:22:14.776Z,420
2016-07-04T05:23:14.743Z,450
2016-07-04T05:24:14.726Z,490
2016-07-04T05:25:14.707Z,545
2016-07-04T05:26:14.685Z,575
2016-07-04T05:27:14.672Z,585
2016-07-04T05:28:14.649Z,595
2016-07-04T05:29:14.630Z,580
2016-07-04T05:30:14.605Z,620
2016-07-04T05:31:14.591Z,665
2016-07-04T05:32:14.562Z,710
2016-07-04T05:33:14.544Z,710
2016-07-04T05:34:14.529Z,640
2016-07-04T05:35:15.139Z,535
2016-07-04T05:36:14.637Z,560
2016-07-04T05:37:15.958Z,620
2016-07-04T05:38:20.176Z,535
2016-07-04T05:39:15.856Z,530
2016-07-04T05:40:14.610Z,600
2016-07-04T05:41:14.414Z,570
2016-07-04T05:42:14.589Z,605
2016-07-04T05:43:14.366Z,620
2016-07-04T05:44:14.355Z,655
2016-07-04T05:45:14.352Z,585
2016-07-04T05:46:14.307Z,530
2016-07-04T05:47:14.885Z,550
2016-07-04T05:48:14.262Z,525
2016-07-04T05:49:15.361Z,505
2016-07-04T05:50:14.837Z,500
2016-07-04T05:51:14.833Z,495
2016-07-04T05:52:14.200Z,490
2016-07-04T05:53:14.823Z,490
2016-07-04T05:54:14.174Z,490
2016-07-04T05:55:14.154Z,485
2016-07-04T05:56:14.143Z,495
2016-07-04T05:57:14.124Z,485
2016-07-04T05:58:14.121Z,490
2016-07-04T05:59:14.097Z,495
2016-07-04T06:00:14.257Z,500
2016-07-04T06:01:14.062Z,465
2016-07-04T06:02:14.135Z,460
2016-07-04T06:03:14.016Z,485
2016-07-04T06:04:14.015Z,500
2016-07-04T06:05:14.018Z,495
2016-07-04T06:06:13.995Z,465
2016-07-04T06:07:13.961Z,490
2016-07-04T06:08:13.936Z,465
2016-07-04T06:09:13.992Z,460
2016-07-04T06:10:14.511Z,465
2016-07-04T06:11:13.894Z,490
2016-07-04T06:12:13.869Z,495
2016-07-04T06:13:13.850Z,495
2016-07-04T06:14:13.841Z,505
2016-07-04T06:15:13.832Z,515
2016-07-04T06:16:13.809Z,475
2016-07-04T06:17:14.385Z,510
2016-07-04T06:18:14.398Z,480
2016-07-04T06:19:13.753Z,495
2016-07-04T06:20:13.750Z,495
2016-07-04T06:21:13.743Z,500
2016-07-04T06:22:14.396Z,500
2016-07-04T06:23:13.717Z,510
2016-07-04T06:24:13.694Z,710
2016-07-04T06:25:13.687Z,1075
2016-07-04T06:26:13.665Z,1340
2016-07-04T06:27:13.647Z,1380
2016-07-04T06:28:13.663Z,1405
2016-07-04T06:29:13.650Z,1420
2016-07-04T06:30:13.609Z,1440
2016-07-04T06:31:14.200Z,1440
2016-07-04T06:32:13.614Z,1410
2016-07-04T06:33:13.558Z,1485
2016-07-04T06:34:14.148Z,1535
2016-07-04T06:35:13.774Z,1530
2016-07-04T06:36:14.115Z,1510
2016-07-04T06:37:13.842Z,1515
2016-07-04T06:38:13.521Z,1525
2016-07-04T06:39:13.477Z,1275
2016-07-04T06:40:13.474Z,790
2016-07-04T06:41:13.458Z,585
2016-07-04T06:42:13.447Z,620
2016-07-04T06:43:13.692Z,1400
2016-07-04T06:44:14.312Z,1400
2016-07-04T06:45:13.705Z,1330
2016-07-04T06:46:13.381Z,1160
2016-07-04T06:47:13.363Z,1355
2016-07-04T06:48:13.361Z,1330
2016-07-04T06:49:13.356Z,1310
2016-07-04T06:50:13.350Z,1290
2016-07-04T06:51:13.352Z,1265
2016-07-04T06:52:13.309Z,1195
2016-07-04T06:53:13.402Z,1140
2016-07-04T06:54:13.284Z,1080
2016-07-04T06:55:13.300Z,1035
2016-07-04T06:56:13.859Z,955
2016-07-04T06:57:13.347Z,920
2016-07-04T06:58:13.893Z,860
2016-07-04T06:59:13.236Z,775
2016-07-04T07:00:13.286Z,755
2016-07-04T07:01:13.207Z,750
2016-07-04T07:02:13.186Z,765
2016-07-04T07:03:13.188Z,775
2016-07-04T07:04:13.174Z,920
2016-07-04T07:05:13.161Z,1555
2016-07-04T07:06:13.157Z,2020
2016-07-04T07:07:13.146Z,2030
2016-07-04T07:08:13.123Z,1850
2016-07-04T07:09:13.139Z,1930
2016-07-04T07:10:13.112Z,2045
2016-07-04T07:11:13.738Z,2130
2016-07-04T07:12:13.076Z,2155
2016-07-04T07:13:13.678Z,2120
2016-07-04T07:14:13.221Z,2110
2016-07-04T07:15:13.091Z,2040
2016-07-04T07:16:13.047Z,1940
2016-07-04T07:17:13.051Z,1880
2016-07-04T07:18:13.183Z,1850
2016-07-04T07:19:13.017Z,1215
2016-07-04T07:20:13.007Z,1810
2016-07-04T07:21:13.014Z,1835
2016-07-04T07:22:13.383Z,1185
2016-07-04T07:23:12.981Z,1825
2016-07-04T07:24:13.572Z,1840
2016-07-04T07:25:12.958Z,1675
2016-07-04T07:26:13.550Z,1945
2016-07-04T07:27:12.953Z,1890
2016-07-04T07:28:13.653Z,1875
2016-07-04T07:29:12.921Z,1935
2016-07-04T07:30:12.913Z,1915
2016-07-04T07:31:12.898Z,1865
2016-07-04T07:32:13.098Z,1805
2016-07-04T07:33:12.904Z,1865
2016-07-04T07:34:12.884Z,1950
2016-07-04T07:35:12.874Z,1970
2016-07-04T07:36:12.877Z,1930
2016-07-04T07:37:12.847Z,2030
2016-07-04T07:38:12.838Z,2090
2016-07-04T07:39:12.835Z,2150
2016-07-04T07:40:12.844Z,2265
2016-07-04T07:41:12.795Z,2255
2016-07-04T07:42:12.857Z,2260
2016-07-04T07:43:12.786Z,2165
2016-07-04T07:44:12.925Z,2230
2016-07-04T07:45:12.764Z,1640
2016-07-04T07:46:13.356Z,2265
2016-07-04T07:47:13.349Z,2315
2016-07-04T07:48:13.344Z,2305
2016-07-04T07:49:12.750Z,2325
2016-07-04T07:50:12.747Z,2235
2016-07-04T07:51:12.721Z,2220
2016-07-04T07:52:13.917Z,2265
2016-07-04T07:53:12.717Z,2225
2016-07-04T07:54:12.702Z,2305
2016-07-04T07:55:13.344Z,2370
2016-07-04T07:56:12.714Z,2325
2016-07-04T07:57:12.707Z,2290
2016-07-04T07:58:12.675Z,2280
2016-07-04T07:59:12.664Z,2315
2016-07-04T08:00:12.661Z,2360
2016-07-04T08:01:12.658Z,2375
2016-07-04T08:02:12.641Z,2315
2016-07-04T08:03:12.631Z,2375
2016-07-04T08:04:12.702Z,2450
2016-07-04T08:05:13.241Z,2465
2016-07-04T08:06:12.613Z,2475
2016-07-04T08:07:13.224Z,2425
2016-07-04T08:08:12.608Z,2435
2016-07-04T08:09:13.210Z,2465
2016-07-04T08:10:13.193Z,2500
2016-07-04T08:11:12.587Z,2485
2016-07-04T08:12:12.586Z,2485
2016-07-04T08:13:13.223Z,2545
2016-07-04T08:14:12.589Z,2535
2016-07-04T08:15:12.602Z,2515
2016-07-04T08:16:12.558Z,2505
2016-07-04T08:17:12.599Z,2495
2016-07-04T08:18:12.602Z,2500
2016-07-04T08:19:12.536Z,2520
2016-07-04T08:20:12.556Z,2610
2016-07-04T08:21:12.511Z,2565
2016-07-04T08:22:12.524Z,2560
2016-07-04T08:23:13.096Z,2535
2016-07-04T08:24:12.509Z,2655
2016-07-04T08:25:12.500Z,2855
2016-07-04T08:26:13.019Z,2860
2016-07-04T08:27:12.484Z,2940
2016-07-04T08:28:12.508Z,2915
2016-07-04T08:29:12.482Z,3070
2016-07-04T08:30:12.473Z,2950
2016-07-04T08:31:13.063Z,2900
2016-07-04T08:32:14.864Z,2940
2016-07-04T08:33:13.387Z,3020
2016-07-04T08:34:14.168Z,2630
2016-07-04T08:35:15.475Z,2970
2016-07-04T08:36:13.449Z,3050
2016-07-04T08:37:14.196Z,2910
2016-07-04T08:38:13.422Z,3025
2016-07-04T08:39:12.440Z,3045
2016-07-04T08:40:12.443Z,3110
2016-07-04T08:41:12.429Z,3085
2016-07-04T08:42:12.459Z,3140
2016-07-04T08:43:14.306Z,3110
2016-07-04T08:44:12.419Z,3150
2016-07-04T08:46:07.865Z,2975
2016-07-04T08:46:17.156Z,2870
2016-07-04T08:47:16.542Z,3015
2016-07-04T08:48:16.541Z,3090
2016-07-04T08:49:48.618Z,3240
2016-07-04T08:50:48.833Z,3325
2016-07-04T08:51:48.623Z,3385
2016-07-04T08:52:53.192Z,1135
2016-07-04T08:53:49.210Z,855
2016-07-04T08:54:23.324Z,790
2016-07-04T08:55:41.498Z,735
2016-07-04T08:56:39.142Z,790
2016-07-04T08:57:21.338Z,875
2016-07-04T08:58:25.287Z,1040
2016-07-04T08:59:22.182Z,1250
2016-07-04T09:26:02.194Z,3425
2016-07-04T09:27:02.202Z,3605
2016-07-04T09:28:02.189Z,3745
2016-07-04T09:29:02.792Z,1440
2016-07-04T09:30:02.186Z,1445
2016-07-04T09:31:02.169Z,1445
2016-07-04T09:32:02.189Z,3760
2016-07-04T09:33:02.156Z,3670
2016-07-04T09:34:02.168Z,3765
2016-07-04T09:35:02.744Z,3875
2016-07-04T09:36:02.140Z,3870
2016-07-04T09:37:02.144Z,3760
2016-07-04T09:38:02.730Z,2055
2016-07-04T09:39:02.142Z,1395
2016-07-04T09:40:02.718Z,1265
2016-07-04T09:41:02.131Z,1320
2016-07-04T09:42:02.146Z,1310
2016-07-04T09:43:02.108Z,2825
2016-07-04T09:44:02.109Z,3580
2016-07-04T09:45:02.140Z,3710
2016-07-04T09:46:02.105Z,3630
2016-07-04T09:47:02.120Z,1295
2016-07-04T09:48:02.095Z,1190
2016-07-04T09:49:02.084Z,1170
2016-07-04T09:50:02.096Z,1140
2016-07-04T09:51:02.102Z,1105
2016-07-04T09:52:02.083Z,1090
2016-07-04T09:53:02.103Z,1120
2016-07-04T09:54:02.099Z,1145
2016-07-04T09:55:02.081Z,1205
2016-07-04T09:56:02.109Z,1220
2016-07-04T09:57:02.109Z,1225
2016-07-04T09:58:02.067Z,1245
2016-07-04T09:59:02.088Z,1335
2016-07-04T10:00:02.051Z,2650
2016-07-04T10:01:02.045Z,2100
2016-07-04T10:02:02.050Z,3965
2016-07-04T10:03:02.636Z,1975
2016-07-04T10:04:02.049Z,3990
2016-07-04T10:05:02.034Z,2435
2016-07-04T10:06:02.019Z,1890
2016-07-04T10:07:02.003Z,1685
2016-07-04T10:08:02.006Z,1525
2016-07-04T10:09:01.992Z,1450
2016-07-04T10:10:02.622Z,1365
2016-07-04T10:11:01.983Z,1260
2016-07-04T10:12:01.979Z,1230
2016-07-04T10:13:01.977Z,1230
2016-07-04T10:14:01.963Z,1230
2016-07-04T10:15:01.961Z,1235
2016-07-04T10:16:02.548Z,1255
2016-07-04T10:17:01.942Z,1280
2016-07-04T10:18:01.921Z,1280
2016-07-04T10:19:01.932Z,1260
2016-07-04T10:20:01.924Z,1225
2016-07-04T10:21:01.893Z,1220
2016-07-04T10:22:01.901Z,1240
2016-07-04T10:23:01.890Z,1300
2016-07-04T10:24:01.979Z,1365
2016-07-04T10:25:01.874Z,1475
2016-07-04T10:26:01.874Z,1855
2016-07-04T10:27:01.857Z,3805
2016-07-04T10:28:01.850Z,3160
2016-07-04T10:29:01.856Z,1705
2016-07-04T10:30:01.841Z,1460
2016-07-04T10:31:01.839Z,1420
2016-07-04T10:32:01.823Z,1350
2016-07-04T10:33:01.811Z,1310
2016-07-04T10:34:01.815Z,1330
2016-07-04T10:35:01.810Z,1465
2016-07-04T10:36:01.802Z,1300
2016-07-04T10:37:01.795Z,1395
2016-07-04T10:38:01.781Z,1340
2016-07-04T10:39:01.780Z,1320
2016-07-04T10:40:01.750Z,2165
2016-07-04T10:41:01.774Z,2860
2016-07-04T10:42:01.761Z,3830
2016-07-04T10:43:01.736Z,3920
2016-07-04T10:44:01.744Z,3500
2016-07-04T10:45:01.736Z,4070
2016-07-04T10:46:01.731Z,4160
2016-07-04T10:47:01.727Z,3920
2016-07-04T10:48:01.730Z,3815
2016-07-04T10:49:01.713Z,3750
2016-07-04T10:50:01.711Z,3940
2016-07-04T10:51:01.714Z,2470
2016-07-04T10:52:01.701Z,3795
2016-07-04T10:53:01.700Z,3840
2016-07-04T10:54:01.699Z,1930
2016-07-04T10:55:01.684Z,2190
2016-07-04T10:56:01.682Z,2305
2016-07-04T10:57:01.690Z,4460
2016-07-04T10:58:01.681Z,2890
2016-07-04T10:59:01.695Z,2180
2016-07-04T11:00:02.456Z,4290
2016-07-04T11:01:01.663Z,2065
2016-07-04T11:02:01.664Z,1790
2016-07-04T11:03:01.674Z,1580
2016-07-04T11:04:01.661Z,1475
2016-07-04T11:05:01.660Z,1350
2016-07-04T11:06:01.660Z,1240
2016-07-04T11:07:01.665Z,1155
2016-07-04T11:08:01.626Z,1090
2016-07-04T11:09:01.645Z,1060
2016-07-04T11:10:01.669Z,1025
2016-07-04T11:11:01.630Z,995
2016-07-04T11:12:01.630Z,980
2016-07-04T11:13:01.634Z,965
2016-07-04T11:14:01.618Z,975
2016-07-04T11:15:01.611Z,1005
2016-07-04T11:16:01.611Z,1025
2016-07-04T11:17:02.210Z,1100
2016-07-04T11:18:01.596Z,1135
2016-07-04T11:19:01.592Z,1225
2016-07-04T11:20:01.584Z,1335
2016-07-04T11:21:01.583Z,1375
2016-07-04T11:22:01.564Z,1325
2016-07-04T11:23:02.143Z,1250
2016-07-04T11:24:01.556Z,1235
2016-07-04T11:25:01.552Z,1675
2016-07-04T11:26:01.535Z,1395
2016-07-04T11:27:01.523Z,2740
2016-07-04T11:28:01.520Z,1980
2016-07-04T11:29:01.530Z,1740
2016-07-04T11:30:01.505Z,1740
2016-07-04T11:31:01.516Z,1705
2016-07-04T11:32:01.504Z,1700
2016-07-04T11:33:01.491Z,1680
2016-07-04T11:34:01.466Z,1640
2016-07-04T11:35:01.473Z,1620
2016-07-04T11:36:01.456Z,1670
2016-07-04T11:37:01.463Z,1620
2016-07-04T11:38:01.438Z,1635
2016-07-04T11:39:01.437Z,1650
2016-07-04T11:40:02.033Z,1905
2016-07-04T11:41:01.421Z,1685
2016-07-04T11:42:01.420Z,1635
2016-07-04T11:43:01.411Z,1640
2016-07-04T11:44:01.415Z,1615
2016-07-04T11:45:01.386Z,1665
2016-07-04T11:46:01.388Z,1780
2016-07-04T11:47:01.369Z,1820
2016-07-04T11:48:01.368Z,1655
2016-07-04T11:49:01.354Z,1615
2016-07-04T11:50:01.358Z,1700
2016-07-04T11:51:01.336Z,1900
2016-07-04T11:52:01.331Z,1850
2016-07-04T11:53:01.336Z,1780
2016-07-04T11:54:01.328Z,1675
2016-07-04T11:55:01.326Z,1555
2016-07-04T11:56:01.317Z,1570
2016-07-04T11:57:01.296Z,1590
2016-07-04T11:58:01.282Z,1565
2016-07-04T11:59:01.295Z,1460
2016-07-04T12:00:01.269Z,1350
2016-07-04T12:01:01.274Z,1355
2016-07-04T12:02:01.266Z,1415
2016-07-04T12:03:01.265Z,1410
2016-07-04T12:04:01.909Z,1410
2016-07-04T12:05:01.235Z,1425
2016-07-04T12:06:01.233Z,1465
2016-07-04T12:07:01.225Z,1515
2016-07-04T12:08:01.217Z,1535
2016-07-04T12:09:01.200Z,1570
2016-07-04T12:10:01.203Z,1630
2016-07-04T12:11:01.195Z,1720
2016-07-04T12:12:01.200Z,1765
2016-07-04T12:13:01.195Z,1790
2016-07-04T12:14:01.174Z,1870
2016-07-04T12:15:01.172Z,2090
2016-07-04T12:16:01.165Z,1980
2016-07-04T12:17:01.143Z,2220
2016-07-04T12:18:01.143Z,2060
2016-07-04T12:19:01.132Z,1870
2016-07-04T12:20:01.099Z,1855
2016-07-04T12:21:01.109Z,2115
2016-07-04T12:22:01.109Z,2195
2016-07-04T12:23:01.118Z,2130
2016-07-04T12:24:01.094Z,2320
2016-07-04T12:25:01.108Z,2125
2016-07-04T12:26:01.089Z,1945
2016-07-04T12:27:01.087Z,1835
2016-07-04T12:28:01.078Z,1750
2016-07-04T12:29:01.068Z,1775
2016-07-04T12:30:01.064Z,2175
2016-07-04T12:31:01.680Z,2285
2016-07-04T12:32:01.049Z,2250
2016-07-04T12:33:01.042Z,2060
2016-07-04T12:34:01.050Z,2605
2016-07-04T12:35:01.636Z,2130
2016-07-04T12:36:01.013Z,2385
2016-07-04T12:37:01.011Z,2130
2016-07-04T12:38:01.013Z,1910
2016-07-04T12:39:01.004Z,3410
2016-07-04T12:40:01.005Z,2275
2016-07-04T12:41:01.152Z,3470
2016-07-04T12:42:00.986Z,3425
2016-07-04T12:43:00.978Z,2580
2016-07-04T12:44:00.986Z,2620
2016-07-04T12:45:00.970Z,3860
2016-07-04T12:46:00.978Z,2360
2016-07-04T12:47:00.959Z,1755
2016-07-04T12:48:00.960Z,2350
2016-07-04T12:49:00.960Z,3875
2016-07-04T12:50:00.950Z,3740
2016-07-04T12:51:00.950Z,3210
2016-07-04T12:52:00.940Z,4015
2016-07-04T12:53:00.946Z,2735
2016-07-04T12:54:00.939Z,2585
2016-07-04T12:55:00.932Z,3000
2016-07-04T12:56:00.930Z,1510
2016-07-04T12:57:00.921Z,1430
2016-07-04T12:58:00.931Z,1330
2016-07-04T12:59:00.923Z,1300
2016-07-04T13:00:00.919Z,1325
2016-07-04T13:01:00.928Z,1365
2016-07-04T13:02:00.917Z,1370
2016-07-04T13:03:00.910Z,1495
2016-07-04T13:04:00.917Z,1490
2016-07-04T13:05:01.502Z,1550
2016-07-04T13:06:00.897Z,1500
2016-07-04T13:07:02.815Z,1435
2016-07-04T13:08:00.886Z,1515
2016-07-04T13:09:00.889Z,1350
2016-07-04T13:10:00.888Z,1395
2016-07-04T13:11:01.492Z,1340
2016-07-04T13:12:00.869Z,1355
2016-07-04T13:13:00.874Z,1520
2016-07-04T13:14:01.463Z,2335
2016-07-04T13:15:00.857Z,2015
2016-07-04T13:16:00.856Z,1700
2016-07-04T13:17:00.848Z,1650
2016-07-04T13:18:00.844Z,1620
2016-07-04T13:19:00.830Z,1510
2016-07-04T13:20:00.824Z,1370
2016-07-04T13:21:00.839Z,1250
2016-07-04T13:22:00.821Z,1180
2016-07-04T13:23:00.812Z,1180
2016-07-04T13:24:00.838Z,1210
2016-07-04T13:25:00.808Z,2185
2016-07-04T13:26:00.795Z,1390
2016-07-04T13:27:00.804Z,1265
2016-07-04T13:28:00.786Z,1195
2016-07-04T13:29:00.776Z,1230
2016-07-04T13:30:00.766Z,1245
2016-07-04T13:31:00.939Z,1245
2016-07-04T13:32:00.746Z,1200
2016-07-04T13:33:00.741Z,1130
2016-07-04T13:34:00.745Z,1070
2016-07-04T13:35:00.739Z,1070
2016-07-04T13:36:00.736Z,1120
2016-07-04T13:37:00.721Z,1160
2016-07-04T13:38:00.713Z,1100
2016-07-04T13:39:01.303Z,1010
2016-07-04T13:40:00.702Z,950
2016-07-04T13:41:00.695Z,925
2016-07-04T13:42:00.687Z,910
2016-07-04T13:43:00.679Z,910
2016-07-04T13:44:00.674Z,920
2016-07-04T13:45:00.665Z,940
2016-07-04T13:46:01.249Z,965
2016-07-04T13:47:00.650Z,970
2016-07-04T13:48:00.640Z,945
2016-07-04T13:49:00.636Z,895
2016-07-04T13:50:00.627Z,860
2016-07-04T13:51:00.614Z,830
2016-07-04T13:52:00.596Z,785
2016-07-04T13:53:00.593Z,740
2016-07-04T13:54:00.579Z,700
2016-07-04T13:55:00.577Z,655
2016-07-04T13:56:00.575Z,610
2016-07-04T13:57:00.571Z,580
2016-07-04T13:58:01.145Z,555
2016-07-04T13:59:00.546Z,535
2016-07-04T14:00:00.524Z,520
2016-07-04T14:01:00.513Z,515
2016-07-04T14:02:00.497Z,545
2016-07-04T14:03:00.492Z,620
2016-07-04T14:04:00.468Z,840
2016-07-04T14:05:00.469Z,965
2016-07-04T14:06:00.470Z,1020
2016-07-04T14:07:00.447Z,1125
2016-07-04T14:08:00.440Z,1270
2016-07-04T14:09:00.424Z,1345
2016-07-04T14:10:00.411Z,1325
2016-07-04T14:11:00.396Z,1290
2016-07-04T14:12:00.997Z,1300
2016-07-04T14:13:00.378Z,2790